KORD

Chicago O'hare International Airport

Chicago, Illinois, USA
KORD 151131Z 1512/1618 16006KT P6SM VCSH SCT040 BKN120 OVC200 FM151600 15010KT P6SM VCSH SCT025 BKN050 OVC070 TEMPO 1517/1519 4SM SHRA BKN025 FM151900 15010KT P6SM VCTS SCT025CB BKN050 TEMPO 1519/1521 4SM SHRA BKN025 FM152100 14009KT P6SM VCSH SCT020 BKN035 PROB30 1521/1524 3SM TSRA BKN020CB FM160100 12004KT P6SM VCSH BKN025 OVC040 FM160700 VRB04KT P6SM OVC010 FM161700 01005KT P6SM BKN020
Issued Valid From Valid To
Aug-15 @ 11:31 UTC
(an hour ago)
Aug-15 @ 12:00 UTC
(40 minutes ago)
Aug-16 @ 18:00 UTC
(-1 days ago)
Aug-15 @ 12:00 to Aug-15 @ 16:00
KORD 151131Z 1512/1618 16006KT P6SM VCSH SCT040 BKN120 OVC200
Wind Visibility Clouds
160° at 6 knots Greater than 6 miles
  • Scattered at 4,000' AGL
  • Broken at 12,000' AGL
  • Overcast at 20,000' AGL
From Aug-15 @ 16:00 to Aug-15 @ 19:00
FM151600 15010KT P6SM VCSH SCT025 BKN050 OVC070
Wind Visibility Clouds
150° at 10 knots Greater than 6 miles
  • Scattered at 2,500' AGL
  • Broken at 5,000' AGL
  • Overcast at 7,000' AGL
Temporary Aug-15 @ 17:00 to Aug-15 @ 19:00
TEMPO 1517/1519 4SM SHRA BKN025
Visibility Clouds Conditions
4 miles
  • Broken at 2,500' AGL
  • Rain
Temporary Aug-15 @ 19:00 to Aug-15 @ 21:00
TEMPO 1519/1521 4SM SHRA BKN025
Visibility Clouds Conditions
4 miles
  • Broken at 2,500' AGL
  • Rain
From Aug-15 @ 19:00 to Aug-15 @ 21:00
FM151900 15010KT P6SM VCTS SCT025CB BKN050
Wind Visibility Clouds Conditions
150° at 10 knots Greater than 6 miles
  • Scattered at 2,500' AGL
  • Broken at 5,000' AGL
  • Area Thunderstorm
Probable  (Probability 30%) Aug-15 @ 21:00 to Aug-16 @ 00:00
PROB30 1521/1524 3SM TSRA BKN020CB
Visibility Clouds Conditions
3 miles
  • Broken at 2,000' AGL
  • Thunderstorm
  • Rain
From Aug-15 @ 21:00 to Aug-16 @ 01:00
FM152100 14009KT P6SM VCSH SCT020 BKN035
Wind Visibility Clouds
140° at 9 knots Greater than 6 miles
  • Scattered at 2,000' AGL
  • Broken at 3,500' AGL
From Aug-16 @ 01:00 to Aug-16 @ 07:00
FM160100 12004KT P6SM VCSH BKN025 OVC040
Wind Visibility Clouds
120° at 4 knots Greater than 6 miles
  • Broken at 2,500' AGL
  • Overcast at 4,000' AGL
From Aug-16 @ 07:00 to Aug-16 @ 17:00
FM160700 VRB04KT P6SM OVC010
Wind Visibility Clouds
Variable at 4 knots Greater than 6 miles
  • Overcast at 1,000' AGL
From Aug-16 @ 17:00 to Aug-16 @ 18:00
FM161700 01005KT P6SM BKN020
Wind Visibility Clouds
10° at 5 knots Greater than 6 miles
  • Broken at 2,000' AGL
KORD 151131Z 1512/1618 16006KT P6SM VCSH SCT040 BKN120 OVC200 FM151600 15010KT P6SM VCSH SCT025 BKN050 OVC070 TEMPO 1517/1519 4SM SHRA BKN025 FM151900 15010KT P6SM VCTS SCT025CB BKN050 TEMPO 1519/1521 4SM SHRA BKN025 FM152100 14009KT P6SM VCSH SCT020 BKN035 PROB30 1521/1524 3SM TSRA BKN020CB FM160100 12004KT P6SM VCSH BKN025 OVC040 FM160700 VRB04KT P6SM OVC010 FM161700 01005KT P6SM BKN020
Issued Aug-15 @ 11:31 UTC
(an hour ago)
Valid From Aug-15 @ 12:00 UTC
(40 minutes ago)
Valid To Aug-16 @ 18:00 UTC
(-1 days ago)
Aug-15 @ 12:00 - Aug-15 @ 16:00
Wind Visibility
160° at 6 knots Greater than 6 miles
Clouds
  • Scattered at 4,000' AGL
  • Broken at 12,000' AGL
  • Overcast at 20,000' AGL
From Aug-15 @ 16:00 - Aug-15 @ 19:00
Wind Visibility
150° at 10 knots Greater than 6 miles
Clouds
  • Scattered at 2,500' AGL
  • Broken at 5,000' AGL
  • Overcast at 7,000' AGL
Temporary Aug-15 @ 17:00 - Aug-15 @ 19:00
Clouds
  • Broken at 2,500' AGL
Conditions
  • Rain
Temporary Aug-15 @ 19:00 - Aug-15 @ 21:00
Clouds
  • Broken at 2,500' AGL
Conditions
  • Rain
From Aug-15 @ 19:00 - Aug-15 @ 21:00
Wind Visibility
150° at 10 knots Greater than 6 miles
Clouds
  • Scattered at 2,500' AGL
  • Broken at 5,000' AGL
Conditions
  • Area Thunderstorm
Probability 30% Probable Aug-15 @ 21:00 - Aug-16 @ 00:00
Clouds
  • Broken at 2,000' AGL
Conditions
  • Thunderstorm
  • Rain
From Aug-15 @ 21:00 - Aug-16 @ 01:00
Wind Visibility
140° at 9 knots Greater than 6 miles
Clouds
  • Scattered at 2,000' AGL
  • Broken at 3,500' AGL
From Aug-16 @ 01:00 - Aug-16 @ 07:00
Wind Visibility
120° at 4 knots Greater than 6 miles
Clouds
  • Broken at 2,500' AGL
  • Overcast at 4,000' AGL
From Aug-16 @ 07:00 - Aug-16 @ 17:00
Wind Visibility
Variable at 4 knots Greater than 6 miles
Clouds
  • Overcast at 1,000' AGL
From Aug-16 @ 17:00 - Aug-16 @ 18:00
Wind Visibility
10° at 5 knots Greater than 6 miles
Clouds
  • Broken at 2,000' AGL